sensor_id;sensor_type;location;lat;lon;timestamp;pressure;altitude;pressure_sealevel;temperature;humidity
80424;BME280;69765;47.668;19.326;2024-02-21T00:00:58;99865.66;;;6.81;96.43
80424;BME280;69765;47.668;19.326;2024-02-21T00:04:01;99864.75;;;6.80;96.17
80424;BME280;69765;47.668;19.326;2024-02-21T00:07:03;99866.41;;;6.80;97.01
80424;BME280;69765;47.668;19.326;2024-02-21T00:10:07;99875.50;;;6.86;96.01
80424;BME280;69765;47.668;19.326;2024-02-21T00:13:09;99867.72;;;6.85;96.26
80424;BME280;69765;47.668;19.326;2024-02-21T00:16:11;99874.25;;;6.91;96.32
80424;BME280;69765;47.668;19.326;2024-02-21T00:19:15;99869.34;;;6.93;95.89
80424;BME280;69765;47.668;19.326;2024-02-21T00:22:17;99871.47;;;6.88;97.29
80424;BME280;69765;47.668;19.326;2024-02-21T00:25:20;99861.69;;;6.93;96.58
80424;BME280;69765;47.668;19.326;2024-02-21T00:28:22;99859.41;;;6.96;96.26
80424;BME280;69765;47.668;19.326;2024-02-21T00:31:24;99853.75;;;6.90;97.52
80424;BME280;69765;47.668;19.326;2024-02-21T00:34:27;99853.34;;;6.85;97.54
80424;BME280;69765;47.668;19.326;2024-02-21T00:37:30;99845.53;;;6.93;97.54
80424;BME280;69765;47.668;19.326;2024-02-21T00:40:33;99848.06;;;6.93;97.04
80424;BME280;69765;47.668;19.326;2024-02-21T00:43:36;99856.09;;;6.78;97.27
80424;BME280;69765;47.668;19.326;2024-02-21T00:46:38;99846.88;;;6.89;96.62
80424;BME280;69765;47.668;19.326;2024-02-21T00:49:41;99847.47;;;6.86;97.40
80424;BME280;69765;47.668;19.326;2024-02-21T00:52:43;99846.13;;;6.90;97.63
80424;BME280;69765;47.668;19.326;2024-02-21T00:55:46;99851.56;;;6.84;96.80
80424;BME280;69765;47.668;19.326;2024-02-21T00:58:48;99852.75;;;6.88;96.84
80424;BME280;69765;47.668;19.326;2024-02-21T01:01:51;99849.44;;;6.89;97.49
80424;BME280;69765;47.668;19.326;2024-02-21T01:04:53;99847.31;;;6.94;97.81
80424;BME280;69765;47.668;19.326;2024-02-21T01:07:55;99835.47;;;6.94;97.68
80424;BME280;69765;47.668;19.326;2024-02-21T01:10:58;99829.41;;;6.83;98.41
80424;BME280;69765;47.668;19.326;2024-02-21T01:14:00;99833.44;;;6.81;99.48
80424;BME280;69765;47.668;19.326;2024-02-21T01:17:03;99832.38;;;6.88;98.68
80424;BME280;69765;47.668;19.326;2024-02-21T01:20:06;99837.03;;;6.83;98.55
80424;BME280;69765;47.668;19.326;2024-02-21T01:23:08;99838.41;;;6.80;98.88
80424;BME280;69765;47.668;19.326;2024-02-21T01:26:10;99833.31;;;6.80;99.32
80424;BME280;69765;47.668;19.326;2024-02-21T01:29:15;99834.50;;;6.83;99.30
80424;BME280;69765;47.668;19.326;2024-02-21T01:32:18;99831.19;;;6.84;98.75
80424;BME280;69765;47.668;19.326;2024-02-21T01:35:20;99837.56;;;6.71;100.00
80424;BME280;69765;47.668;19.326;2024-02-21T01:38:22;99828.81;;;6.77;99.42
80424;BME280;69765;47.668;19.326;2024-02-21T01:41:25;99830.56;;;6.68;99.88
80424;BME280;69765;47.668;19.326;2024-02-21T01:44:27;99817.19;;;6.71;99.90
80424;BME280;69765;47.668;19.326;2024-02-21T01:47:29;99808.81;;;6.72;99.15
80424;BME280;69765;47.668;19.326;2024-02-21T01:50:32;99809.84;;;6.74;99.01
80424;BME280;69765;47.668;19.326;2024-02-21T01:53:37;99804.84;;;6.56;99.90
80424;BME280;69765;47.668;19.326;2024-02-21T01:56:39;99810.75;;;6.47;100.00
80424;BME280;69765;47.668;19.326;2024-02-21T01:59:42;99806.56;;;6.47;100.00
80424;BME280;69765;47.668;19.326;2024-02-21T02:02:45;99804.56;;;6.53;99.89
80424;BME280;69765;47.668;19.326;2024-02-21T02:05:49;99797.59;;;6.42;100.00
80424;BME280;69765;47.668;19.326;2024-02-21T02:08:53;99804.94;;;6.39;100.00
80424;BME280;69765;47.668;19.326;2024-02-21T02:11:55;99802.28;;;6.37;100.00
80424;BME280;69765;47.668;19.326;2024-02-21T02:15:02;99811.22;;;6.43;100.00
80424;BME280;69765;47.668;19.326;2024-02-21T02:18:06;99802.28;;;6.37;99.95
80424;BME280;69765;47.668;19.326;2024-02-21T02:21:15;99814.41;;;6.40;99.31
80424;BME280;69765;47.668;19.326;2024-02-21T02:24:24;99807.22;;;6.36;98.91
80424;BME280;69765;47.668;19.326;2024-02-21T02:27:27;99814.44;;;6.31;99.25
80424;BME280;69765;47.668;19.326;2024-02-21T02:30:33;99805.16;;;6.32;99.55
80424;BME280;69765;47.668;19.326;2024-02-21T02:33:36;99799.00;;;6.30;98.81
80424;BME280;69765;47.668;19.326;2024-02-21T02:36:39;99808.03;;;6.26;98.67
80424;BME280;69765;47.668;19.326;2024-02-21T02:39:41;99809.78;;;6.36;98.25
80424;BME280;69765;47.668;19.326;2024-02-21T02:42:44;99812.94;;;6.25;98.33
80424;BME280;69765;47.668;19.326;2024-02-21T02:45:46;99805.50;;;6.26;98.63
80424;BME280;69765;47.668;19.326;2024-02-21T02:48:48;99794.56;;;6.27;98.10
80424;BME280;69765;47.668;19.326;2024-02-21T02:51:50;99800.44;;;6.18;98.85
80424;BME280;69765;47.668;19.326;2024-02-21T02:54:52;99798.81;;;6.09;99.86
80424;BME280;69765;47.668;19.326;2024-02-21T02:57:57;99802.88;;;6.07;100.00
80424;BME280;69765;47.668;19.326;2024-02-21T03:00:59;99804.94;;;6.11;99.50
80424;BME280;69765;47.668;19.326;2024-02-21T03:04:02;99805.41;;;6.07;99.37
80424;BME280;69765;47.668;19.326;2024-02-21T03:07:06;99796.75;;;6.05;99.40
80424;BME280;69765;47.668;19.326;2024-02-21T03:10:08;99792.88;;;6.00;98.89
80424;BME280;69765;47.668;19.326;2024-02-21T03:13:11;99801.25;;;5.99;98.84
80424;BME280;69765;47.668;19.326;2024-02-21T03:16:17;99799.94;;;5.94;98.18
80424;BME280;69765;47.668;19.326;2024-02-21T03:19:19;99806.50;;;5.92;98.39
80424;BME280;69765;47.668;19.326;2024-02-21T03:22:22;99810.97;;;5.86;98.20
80424;BME280;69765;47.668;19.326;2024-02-21T03:25:24;99813.41;;;5.76;98.55
80424;BME280;69765;47.668;19.326;2024-02-21T03:28:26;99814.75;;;5.72;98.57
80424;BME280;69765;47.668;19.326;2024-02-21T03:31:29;99814.16;;;5.75;97.94
80424;BME280;69765;47.668;19.326;2024-02-21T03:34:33;99815.22;;;5.59;97.84
80424;BME280;69765;47.668;19.326;2024-02-21T03:37:36;99831.53;;;5.53;98.49
80424;BME280;69765;47.668;19.326;2024-02-21T03:40:38;99819.59;;;5.43;98.99
80424;BME280;69765;47.668;19.326;2024-02-21T03:43:40;99814.84;;;5.37;98.94
80424;BME280;69765;47.668;19.326;2024-02-21T03:46:44;99811.41;;;5.28;99.07
80424;BME280;69765;47.668;19.326;2024-02-21T03:49:46;99808.88;;;5.20;99.38
80424;BME280;69765;47.668;19.326;2024-02-21T03:52:49;99818.56;;;5.15;100.00
80424;BME280;69765;47.668;19.326;2024-02-21T03:55:51;99823.06;;;5.09;100.00
80424;BME280;69765;47.668;19.326;2024-02-21T03:58:53;99821.56;;;5.02;100.00
80424;BME280;69765;47.668;19.326;2024-02-21T04:01:56;99823.38;;;4.95;100.00
80424;BME280;69765;47.668;19.326;2024-02-21T04:04:58;99815.56;;;4.93;100.00
80424;BME280;69765;47.668;19.326;2024-02-21T04:08:07;99819.16;;;4.78;100.00
80424;BME280;69765;47.668;19.326;2024-02-21T04:11:10;99814.81;;;4.68;100.00
80424;BME280;69765;47.668;19.326;2024-02-21T04:14:12;99821.22;;;4.73;100.00
80424;BME280;69765;47.668;19.326;2024-02-21T04:17:14;99817.06;;;4.74;100.00
80424;BME280;69765;47.668;19.326;2024-02-21T04:20:16;99820.63;;;4.67;100.00
80424;BME280;69765;47.668;19.326;2024-02-21T04:23:19;99815.41;;;4.57;100.00
80424;BME280;69765;47.668;19.326;2024-02-21T04:26:21;99815.69;;;4.60;100.00
80424;BME280;69765;47.668;19.326;2024-02-21T04:29:23;99810.59;;;4.51;100.00
80424;BME280;69765;47.668;19.326;2024-02-21T04:32:26;99806.41;;;4.43;100.00
80424;BME280;69765;47.668;19.326;2024-02-21T04:35:29;99806.69;;;4.38;100.00
80424;BME280;69765;47.668;19.326;2024-02-21T04:38:31;99810.28;;;4.40;100.00
80424;BME280;69765;47.668;19.326;2024-02-21T04:41:34;99812.22;;;4.33;100.00
80424;BME280;69765;47.668;19.326;2024-02-21T04:44:36;99815.47;;;4.24;100.00
80424;BME280;69765;47.668;19.326;2024-02-21T04:47:38;99813.06;;;4.25;100.00
80424;BME280;69765;47.668;19.326;2024-02-21T04:50:40;99824.81;;;4.16;100.00
80424;BME280;69765;47.668;19.326;2024-02-21T04:53:43;99827.78;;;4.12;100.00
80424;BME280;69765;47.668;19.326;2024-02-21T04:56:46;99826.00;;;4.11;100.00
80424;BME280;69765;47.668;19.326;2024-02-21T04:59:50;99820.31;;;4.05;100.00
80424;BME280;69765;47.668;19.326;2024-02-21T05:02:52;99822.06;;;3.97;100.00
80424;BME280;69765;47.668;19.326;2024-02-21T05:05:54;99821.16;;;3.97;100.00
80424;BME280;69765;47.668;19.326;2024-02-21T05:08:57;99816.03;;;3.88;100.00
80424;BME280;69765;47.668;19.326;2024-02-21T05:12:00;99820.78;;;3.85;100.00
80424;BME280;69765;47.668;19.326;2024-02-21T05:15:03;99826.03;;;3.87;100.00
80424;BME280;69765;47.668;19.326;2024-02-21T05:18:05;99823.91;;;3.82;100.00
80424;BME280;69765;47.668;19.326;2024-02-21T05:21:08;99818.84;;;3.82;100.00
80424;BME280;69765;47.668;19.326;2024-02-21T05:24:10;99825.03;;;3.69;100.00
80424;BME280;69765;47.668;19.326;2024-02-21T05:27:12;99829.69;;;3.73;100.00
80424;BME280;69765;47.668;19.326;2024-02-21T05:30:14;99824.91;;;3.76;100.00
80424;BME280;69765;47.668;19.326;2024-02-21T05:33:17;99829.00;;;3.82;100.00
80424;BME280;69765;47.668;19.326;2024-02-21T05:36:23;99833.16;;;3.82;100.00
80424;BME280;69765;47.668;19.326;2024-02-21T05:39:26;99829.94;;;3.92;100.00
80424;BME280;69765;47.668;19.326;2024-02-21T05:42:28;99831.06;;;3.78;100.00
80424;BME280;69765;47.668;19.326;2024-02-21T05:45:30;99834.00;;;3.74;100.00
80424;BME280;69765;47.668;19.326;2024-02-21T05:48:32;99834.53;;;3.87;100.00
80424;BME280;69765;47.668;19.326;2024-02-21T05:51:40;99834.25;;;3.93;100.00
80424;BME280;69765;47.668;19.326;2024-02-21T05:54:42;99835.00;;;3.92;100.00
80424;BME280;69765;47.668;19.326;2024-02-21T05:57:45;99835.00;;;3.92;100.00
80424;BME280;69765;47.668;19.326;2024-02-21T06:00:47;99832.94;;;3.96;100.00
80424;BME280;69765;47.668;19.326;2024-02-21T06:03:49;99830.59;;;4.06;100.00
80424;BME280;69765;47.668;19.326;2024-02-21T06:06:51;99841.63;;;4.07;100.00
80424;BME280;69765;47.668;19.326;2024-02-21T06:09:54;99848.81;;;4.11;100.00
80424;BME280;69765;47.668;19.326;2024-02-21T06:12:56;99849.13;;;4.23;100.00
80424;BME280;69765;47.668;19.326;2024-02-21T06:15:58;99858.09;;;4.28;100.00
80424;BME280;69765;47.668;19.326;2024-02-21T06:19:00;99859.53;;;4.50;100.00
80424;BME280;69765;47.668;19.326;2024-02-21T06:22:02;99852.09;;;4.52;100.00
80424;BME280;69765;47.668;19.326;2024-02-21T06:25:09;99865.03;;;4.46;100.00
80424;BME280;69765;47.668;19.326;2024-02-21T06:28:11;99862.69;;;4.65;100.00
80424;BME280;69765;47.668;19.326;2024-02-21T06:31:13;99866.78;;;4.80;100.00
80424;BME280;69765;47.668;19.326;2024-02-21T06:34:16;99881.13;;;4.88;100.00
80424;BME280;69765;47.668;19.326;2024-02-21T06:37:19;99886.63;;;4.84;100.00
80424;BME280;69765;47.668;19.326;2024-02-21T06:40:22;99899.31;;;4.76;100.00
80424;BME280;69765;47.668;19.326;2024-02-21T06:43:24;99883.84;;;5.07;100.00
80424;BME280;69765;47.668;19.326;2024-02-21T06:46:28;99888.31;;;5.97;96.59
80424;BME280;69765;47.668;19.326;2024-02-21T06:49:31;99889.56;;;6.28;94.84
80424;BME280;69765;47.668;19.326;2024-02-21T06:52:34;99878.56;;;6.46;93.94
80424;BME280;69765;47.668;19.326;2024-02-21T06:55:36;99882.09;;;7.50;88.45
80424;BME280;69765;47.668;19.326;2024-02-21T06:58:39;99878.34;;;8.83;80.28
80424;BME280;69765;47.668;19.326;2024-02-21T07:01:45;99875.94;;;9.78;72.84
80424;BME280;69765;47.668;19.326;2024-02-21T07:04:48;99876.88;;;10.76;68.78
80424;BME280;69765;47.668;19.326;2024-02-21T07:07:50;99875.28;;;11.69;62.74
80424;BME280;69765;47.668;19.326;2024-02-21T07:10:53;99872.59;;;12.14;59.50
80424;BME280;69765;47.668;19.326;2024-02-21T07:13:55;99866.78;;;13.17;57.61
80424;BME280;69765;47.668;19.326;2024-02-21T07:16:58;99869.00;;;13.89;52.70
80424;BME280;69765;47.668;19.326;2024-02-21T07:20:00;99871.00;;;14.90;49.14
80424;BME280;69765;47.668;19.326;2024-02-21T07:23:03;99872.19;;;14.95;48.60
80424;BME280;69765;47.668;19.326;2024-02-21T07:26:06;99870.50;;;14.40;48.38
80424;BME280;69765;47.668;19.326;2024-02-21T07:29:08;99875.91;;;14.57;48.86
80424;BME280;69765;47.668;19.326;2024-02-21T07:32:12;99871.22;;;15.38;46.18
80424;BME280;69765;47.668;19.326;2024-02-21T07:35:14;99873.03;;;16.61;42.62
80424;BME280;69765;47.668;19.326;2024-02-21T07:38:16;99861.75;;;18.14;40.09
80424;BME280;69765;47.668;19.326;2024-02-21T07:41:20;99859.81;;;18.28;38.63
80424;BME280;69765;47.668;19.326;2024-02-21T07:44:22;99858.16;;;19.06;36.80
80424;BME280;69765;47.668;19.326;2024-02-21T07:47:24;99859.06;;;19.90;34.50
80424;BME280;69765;47.668;19.326;2024-02-21T07:50:27;99864.63;;;20.89;33.44
80424;BME280;69765;47.668;19.326;2024-02-21T07:53:29;99858.22;;;21.05;32.40
80424;BME280;69765;47.668;19.326;2024-02-21T07:56:32;99866.44;;;20.00;33.30
80424;BME280;69765;47.668;19.326;2024-02-21T07:59:34;99862.47;;;20.55;33.11
80424;BME280;69765;47.668;19.326;2024-02-21T08:02:36;99853.34;;;21.14;31.24
80424;BME280;69765;47.668;19.326;2024-02-21T08:05:39;99861.28;;;22.22;29.82
80424;BME280;69765;47.668;19.326;2024-02-21T08:08:42;99856.22;;;22.87;29.05
80424;BME280;69765;47.668;19.326;2024-02-21T08:11:44;99857.22;;;23.24;28.16
80424;BME280;69765;47.668;19.326;2024-02-21T08:14:46;99856.41;;;23.61;27.23
80424;BME280;69765;47.668;19.326;2024-02-21T08:17:49;99848.25;;;24.19;26.48
80424;BME280;69765;47.668;19.326;2024-02-21T08:20:51;99856.59;;;24.03;26.83
80424;BME280;69765;47.668;19.326;2024-02-21T08:23:53;99847.63;;;24.70;26.00
80424;BME280;69765;47.668;19.326;2024-02-21T08:26:56;99857.91;;;24.61;25.04
80424;BME280;69765;47.668;19.326;2024-02-21T08:29:58;99843.03;;;25.53;24.26
80424;BME280;69765;47.668;19.326;2024-02-21T08:33:00;99840.88;;;25.29;24.19
80424;BME280;69765;47.668;19.326;2024-02-21T08:36:03;99853.47;;;24.57;25.05
80424;BME280;69765;47.668;19.326;2024-02-21T08:39:05;99841.59;;;25.71;23.29
80424;BME280;69765;47.668;19.326;2024-02-21T08:42:07;99844.91;;;25.60;23.64
80424;BME280;69765;47.668;19.326;2024-02-21T08:45:10;99842.88;;;25.95;23.31
80424;BME280;69765;47.668;19.326;2024-02-21T08:48:12;99843.13;;;25.57;23.48
80424;BME280;69765;47.668;19.326;2024-02-21T08:51:18;99843.59;;;25.83;22.86
80424;BME280;69765;47.668;19.326;2024-02-21T08:54:21;99845.09;;;25.72;23.43
80424;BME280;69765;47.668;19.326;2024-02-21T08:57:23;99841.91;;;25.90;22.48
80424;BME280;69765;47.668;19.326;2024-02-21T09:00:25;99833.59;;;26.87;22.48
80424;BME280;69765;47.668;19.326;2024-02-21T09:03:33;99838.66;;;26.70;21.84
80424;BME280;69765;47.668;19.326;2024-02-21T09:06:35;99837.53;;;26.51;22.13
80424;BME280;69765;47.668;19.326;2024-02-21T09:09:41;99836.22;;;26.87;21.42
80424;BME280;69765;47.668;19.326;2024-02-21T09:12:43;99839.31;;;27.33;21.07
80424;BME280;69765;47.668;19.326;2024-02-21T09:15:47;99840.47;;;26.77;21.35
80424;BME280;69765;47.668;19.326;2024-02-21T09:18:49;99837.13;;;27.77;19.29
80424;BME280;69765;47.668;19.326;2024-02-21T09:21:52;99836.13;;;27.69;20.13
80424;BME280;69765;47.668;19.326;2024-02-21T09:24:54;99836.13;;;27.67;20.13
80424;BME280;69765;47.668;19.326;2024-02-21T09:27:56;99833.66;;;27.89;18.92
80424;BME280;69765;47.668;19.326;2024-02-21T09:31:00;99836.44;;;28.13;19.24
80424;BME280;69765;47.668;19.326;2024-02-21T09:34:02;99831.84;;;27.79;19.40
80424;BME280;69765;47.668;19.326;2024-02-21T09:37:05;99831.53;;;28.87;18.43
80424;BME280;69765;47.668;19.326;2024-02-21T09:40:07;99835.06;;;28.80;17.96
80424;BME280;69765;47.668;19.326;2024-02-21T09:43:10;99836.56;;;27.19;20.35
80424;BME280;69765;47.668;19.326;2024-02-21T09:46:16;99839.81;;;27.88;18.97
80424;BME280;69765;47.668;19.326;2024-02-21T09:49:28;99836.97;;;27.63;19.40
80424;BME280;69765;47.668;19.326;2024-02-21T09:52:33;99828.00;;;28.77;18.36
80424;BME280;69765;47.668;19.326;2024-02-21T09:55:38;99834.66;;;28.06;18.87
80424;BME280;69765;47.668;19.326;2024-02-21T09:58:43;99833.03;;;28.25;19.35
80424;BME280;69765;47.668;19.326;2024-02-21T10:01:46;99819.28;;;29.06;18.96
80424;BME280;69765;47.668;19.326;2024-02-21T10:04:49;99819.34;;;29.27;18.32
80424;BME280;69765;47.668;19.326;2024-02-21T10:07:52;99817.63;;;29.55;18.45
80424;BME280;69765;47.668;19.326;2024-02-21T10:10:54;99816.56;;;28.76;19.08
80424;BME280;69765;47.668;19.326;2024-02-21T10:14:05;99815.78;;;29.26;18.57
80424;BME280;69765;47.668;19.326;2024-02-21T10:17:08;99809.66;;;29.72;18.26
80424;BME280;69765;47.668;19.326;2024-02-21T10:20:17;99797.31;;;29.40;19.04
80424;BME280;69765;47.668;19.326;2024-02-21T10:23:19;99798.34;;;27.65;20.19
80424;BME280;69765;47.668;19.326;2024-02-21T10:26:22;99808.44;;;24.78;23.64
80424;BME280;69765;47.668;19.326;2024-02-21T10:29:24;99812.41;;;23.79;25.20
80424;BME280;69765;47.668;19.326;2024-02-21T10:32:26;99798.88;;;25.79;22.80
80424;BME280;69765;47.668;19.326;2024-02-21T10:35:34;99800.72;;;22.95;25.94
80424;BME280;69765;47.668;19.326;2024-02-21T10:38:41;99801.13;;;20.61;29.31
80424;BME280;69765;47.668;19.326;2024-02-21T10:41:44;99797.03;;;20.46;29.62
80424;BME280;69765;47.668;19.326;2024-02-21T10:44:50;99788.75;;;23.05;27.09
80424;BME280;69765;47.668;19.326;2024-02-21T10:47:55;99785.66;;;22.55;27.50
80424;BME280;69765;47.668;19.326;2024-02-21T10:51:14;99771.56;;;24.69;24.24
80424;BME280;69765;47.668;19.326;2024-02-21T10:54:30;99762.91;;;25.18;24.03
80424;BME280;69765;47.668;19.326;2024-02-21T10:57:37;99772.13;;;22.10;27.00
80424;BME280;69765;47.668;19.326;2024-02-21T11:00:40;99757.25;;;22.99;26.93
80424;BME280;69765;47.668;19.326;2024-02-21T11:03:46;99751.41;;;23.09;24.79
80424;BME280;69765;47.668;19.326;2024-02-21T11:06:50;99747.78;;;21.52;27.86
80424;BME280;69765;47.668;19.326;2024-02-21T11:09:54;99744.75;;;20.15;29.36
80424;BME280;69765;47.668;19.326;2024-02-21T11:13:07;99746.34;;;18.24;33.00
80424;BME280;69765;47.668;19.326;2024-02-21T11:16:11;99749.38;;;18.13;33.24
80424;BME280;69765;47.668;19.326;2024-02-21T11:22:23;99734.13;;;17.29;35.12
80424;BME280;69765;47.668;19.326;2024-02-21T11:25:30;99737.03;;;16.83;36.58
80424;BME280;69765;47.668;19.326;2024-02-21T11:28:36;99731.13;;;16.69;36.78
80424;BME280;69765;47.668;19.326;2024-02-21T11:31:40;99726.00;;;17.39;36.11
80424;BME280;69765;47.668;19.326;2024-02-21T11:34:58;99728.81;;;17.08;36.69
80424;BME280;69765;47.668;19.326;2024-02-21T11:38:22;99723.88;;;16.62;37.61
80424;BME280;69765;47.668;19.326;2024-02-21T11:41:25;99731.19;;;16.04;38.65
80424;BME280;69765;47.668;19.326;2024-02-21T11:44:27;99725.91;;;15.70;39.57
80424;BME280;69765;47.668;19.326;2024-02-21T11:47:29;99730.81;;;15.50;40.16
80424;BME280;69765;47.668;19.326;2024-02-21T11:50:32;99727.59;;;15.23;41.14
80424;BME280;69765;47.668;19.326;2024-02-21T11:53:34;99723.00;;;14.88;42.34
80424;BME280;69765;47.668;19.326;2024-02-21T11:56:44;99725.03;;;14.21;43.52
80424;BME280;69765;47.668;19.326;2024-02-21T11:59:47;99724.56;;;14.14;43.86
80424;BME280;69765;47.668;19.326;2024-02-21T12:02:50;99724.88;;;13.77;44.92
80424;BME280;69765;47.668;19.326;2024-02-21T12:05:53;99718.09;;;13.92;44.96
80424;BME280;69765;47.668;19.326;2024-02-21T12:08:58;99715.44;;;15.83;41.61
80424;BME280;69765;47.668;19.326;2024-02-21T12:12:04;99706.81;;;16.15;40.16
80424;BME280;69765;47.668;19.326;2024-02-21T12:15:07;99704.28;;;15.68;41.06
80424;BME280;69765;47.668;19.326;2024-02-21T12:18:10;99698.03;;;17.14;39.76
80424;BME280;69765;47.668;19.326;2024-02-21T12:21:12;99695.09;;;17.79;37.31
80424;BME280;69765;47.668;19.326;2024-02-21T12:24:23;99693.81;;;18.28;36.69
80424;BME280;69765;47.668;19.326;2024-02-21T12:27:26;99692.22;;;17.73;35.72
80424;BME280;69765;47.668;19.326;2024-02-21T12:30:28;99691.63;;;16.55;37.71
80424;BME280;69765;47.668;19.326;2024-02-21T12:33:32;99694.59;;;16.13;39.53
80424;BME280;69765;47.668;19.326;2024-02-21T12:36:40;99688.38;;;15.45;41.14
80424;BME280;69765;47.668;19.326;2024-02-21T12:39:42;99694.50;;;15.16;41.12
80424;BME280;69765;47.668;19.326;2024-02-21T12:42:46;99689.63;;;15.06;42.17
80424;BME280;69765;47.668;19.326;2024-02-21T12:45:48;99693.66;;;14.71;43.38
80424;BME280;69765;47.668;19.326;2024-02-21T12:48:50;99690.72;;;14.65;43.80
80424;BME280;69765;47.668;19.326;2024-02-21T12:51:52;99678.09;;;14.55;43.72
80424;BME280;69765;47.668;19.326;2024-02-21T12:54:55;99669.00;;;14.76;43.31
80424;BME280;69765;47.668;19.326;2024-02-21T12:58:03;99665.38;;;14.88;43.52
80424;BME280;69765;47.668;19.326;2024-02-21T13:01:07;99661.66;;;14.82;43.58
80424;BME280;69765;47.668;19.326;2024-02-21T13:04:10;99667.78;;;14.70;43.52
80424;BME280;69765;47.668;19.326;2024-02-21T13:07:14;99658.00;;;14.64;43.13
80424;BME280;69765;47.668;19.326;2024-02-21T13:10:16;99658.00;;;14.49;43.35
80424;BME280;69765;47.668;19.326;2024-02-21T13:13:18;99653.88;;;14.38;43.47
80424;BME280;69765;47.668;19.326;2024-02-21T13:16:20;99650.75;;;14.29;44.11
80424;BME280;69765;47.668;19.326;2024-02-21T13:19:24;99654.78;;;13.96;44.62
80424;BME280;69765;47.668;19.326;2024-02-21T13:22:27;99653.00;;;13.95;44.08
80424;BME280;69765;47.668;19.326;2024-02-21T13:25:39;99641.94;;;13.54;45.57
80424;BME280;69765;47.668;19.326;2024-02-21T13:28:43;99632.84;;;13.32;45.12
80424;BME280;69765;47.668;19.326;2024-02-21T13:31:47;99644.69;;;13.29;46.33
80424;BME280;69765;47.668;19.326;2024-02-21T13:34:50;99633.03;;;13.08;46.03
80424;BME280;69765;47.668;19.326;2024-02-21T13:37:54;99630.41;;;13.21;46.67
80424;BME280;69765;47.668;19.326;2024-02-21T13:40:57;99618.38;;;13.07;45.39
80424;BME280;69765;47.668;19.326;2024-02-21T13:43:59;99624.41;;;13.08;46.40
80424;BME280;69765;47.668;19.326;2024-02-21T13:47:02;99618.50;;;12.95;45.96
80424;BME280;69765;47.668;19.326;2024-02-21T13:50:05;99611.97;;;13.00;46.72
80424;BME280;69765;47.668;19.326;2024-02-21T13:53:13;99610.19;;;13.13;46.15
80424;BME280;69765;47.668;19.326;2024-02-21T13:56:15;99608.78;;;13.18;46.09
80424;BME280;69765;47.668;19.326;2024-02-21T13:59:18;99604.75;;;13.08;46.93
80424;BME280;69765;47.668;19.326;2024-02-21T14:02:20;99604.63;;;12.93;47.34
80424;BME280;69765;47.668;19.326;2024-02-21T14:05:23;99605.25;;;12.89;46.80
80424;BME280;69765;47.668;19.326;2024-02-21T14:08:34;99607.53;;;12.85;46.65
80424;BME280;69765;47.668;19.326;2024-02-21T14:11:36;99604.56;;;12.52;47.66
80424;BME280;69765;47.668;19.326;2024-02-21T14:14:40;99607.72;;;12.48;48.64
80424;BME280;69765;47.668;19.326;2024-02-21T14:17:43;99608.13;;;12.54;48.90
80424;BME280;69765;47.668;19.326;2024-02-21T14:20:46;99606.09;;;12.37;49.12
80424;BME280;69765;47.668;19.326;2024-02-21T14:23:49;99596.53;;;12.34;48.72
80424;BME280;69765;47.668;19.326;2024-02-21T14:26:51;99600.06;;;12.23;50.46
80424;BME280;69765;47.668;19.326;2024-02-21T14:29:53;99600.50;;;12.29;50.81
80424;BME280;69765;47.668;19.326;2024-02-21T14:32:55;99596.16;;;12.28;51.38
80424;BME280;69765;47.668;19.326;2024-02-21T14:35:58;99595.72;;;12.22;51.82
80424;BME280;69765;47.668;19.326;2024-02-21T14:39:01;99591.88;;;12.15;50.96
80424;BME280;69765;47.668;19.326;2024-02-21T14:42:04;99592.97;;;12.19;51.13
80424;BME280;69765;47.668;19.326;2024-02-21T14:45:07;99596.56;;;11.96;51.43
80424;BME280;69765;47.668;19.326;2024-02-21T14:48:09;99591.75;;;12.00;51.81
80424;BME280;69765;47.668;19.326;2024-02-21T14:51:11;99597.06;;;11.90;51.60
80424;BME280;69765;47.668;19.326;2024-02-21T14:54:14;99600.28;;;11.76;52.10
80424;BME280;69765;47.668;19.326;2024-02-21T14:57:19;99592.50;;;11.74;51.44
80424;BME280;69765;47.668;19.326;2024-02-21T15:00:22;99593.97;;;11.71;51.72
80424;BME280;69765;47.668;19.326;2024-02-21T15:03:37;99590.16;;;11.77;51.88
80424;BME280;69765;47.668;19.326;2024-02-21T15:06:40;99587.38;;;11.74;51.85
80424;BME280;69765;47.668;19.326;2024-02-21T15:09:43;99584.16;;;11.65;51.49
80424;BME280;69765;47.668;19.326;2024-02-21T15:12:46;99586.09;;;11.56;51.43
80424;BME280;69765;47.668;19.326;2024-02-21T15:15:48;99583.59;;;11.69;51.09
80424;BME280;69765;47.668;19.326;2024-02-21T15:18:50;99577.13;;;11.38;52.74
80424;BME280;69765;47.668;19.326;2024-02-21T15:21:53;99584.59;;;11.46;52.48
80424;BME280;69765;47.668;19.326;2024-02-21T15:24:55;99578.66;;;11.47;52.67
80424;BME280;69765;47.668;19.326;2024-02-21T15:27:58;99574.56;;;11.38;51.80
80424;BME280;69765;47.668;19.326;2024-02-21T15:31:01;99572.94;;;11.26;52.62
80424;BME280;69765;47.668;19.326;2024-02-21T15:34:05;99580.09;;;11.31;55.24
80424;BME280;69765;47.668;19.326;2024-02-21T15:37:09;99580.28;;;11.34;55.90
80424;BME280;69765;47.668;19.326;2024-02-21T15:40:12;99576.56;;;11.17;57.87
80424;BME280;69765;47.668;19.326;2024-02-21T15:43:15;99580.78;;;11.16;56.95
80424;BME280;69765;47.668;19.326;2024-02-21T15:46:17;99568.44;;;11.11;56.38
80424;BME280;69765;47.668;19.326;2024-02-21T15:49:19;99580.25;;;11.09;58.13
80424;BME280;69765;47.668;19.326;2024-02-21T15:52:21;99573.63;;;10.87;57.09
80424;BME280;69765;47.668;19.326;2024-02-21T15:55:24;99574.06;;;10.58;57.04
80424;BME280;69765;47.668;19.326;2024-02-21T15:58:27;99569.19;;;10.73;58.94
80424;BME280;69765;47.668;19.326;2024-02-21T16:01:30;99566.03;;;10.77;59.13
80424;BME280;69765;47.668;19.326;2024-02-21T16:04:35;99566.41;;;10.46;58.32